sensor_id;sensor_type;location;lat;lon;timestamp;pressure;altitude;pressure_sealevel;temperature;humidity
80640;BME280;69992;60.170;24.692;2023-05-14T00:01:17;102400.50;;;6.35;13.54
80640;BME280;69992;60.170;24.692;2023-05-14T00:03:43;102401.35;;;6.33;13.53
80640;BME280;69992;60.170;24.692;2023-05-14T00:06:08;102400.25;;;5.32;13.54
80640;BME280;69992;60.170;24.692;2023-05-14T00:08:33;102398.81;;;4.31;13.55
80640;BME280;69992;60.170;24.692;2023-05-14T00:10:59;102400.86;;;5.29;13.53
80640;BME280;69992;60.170;24.692;2023-05-14T00:13:25;102400.09;;;5.29;13.53
80640;BME280;69992;60.170;24.692;2023-05-14T00:15:50;102398.22;;;5.25;13.51
80640;BME280;69992;60.170;24.692;2023-05-14T00:18:16;102395.55;;;5.16;13.52
80640;BME280;69992;60.170;24.692;2023-05-14T00:20:42;102395.28;;;5.08;13.53
80640;BME280;69992;60.170;24.692;2023-05-14T00:23:08;102396.69;;;6.87;13.54
80640;BME280;69992;60.170;24.692;2023-05-14T00:25:33;102397.48;;;5.81;13.53
80640;BME280;69992;60.170;24.692;2023-05-14T00:27:59;102399.06;;;5.82;13.55
80640;BME280;69992;60.170;24.692;2023-05-14T00:30:25;102400.50;;;5.83;13.53
80640;BME280;69992;60.170;24.692;2023-05-14T00:32:50;102401.95;;;6.78;13.53
80640;BME280;69992;60.170;24.692;2023-05-14T00:35:16;102404.68;;;4.78;13.52
80640;BME280;69992;60.170;24.692;2023-05-14T00:37:42;102405.62;;;6.75;13.53
80640;BME280;69992;60.170;24.692;2023-05-14T00:40:08;102406.51;;;4.81;13.52
80640;BME280;69992;60.170;24.692;2023-05-14T00:42:33;102405.17;;;4.81;13.53
80640;BME280;69992;60.170;24.692;2023-05-14T00:44:58;102407.80;;;5.78;13.55
80640;BME280;69992;60.170;24.692;2023-05-14T00:47:24;102405.54;;;4.74;13.55
80640;BME280;69992;60.170;24.692;2023-05-14T00:49:50;102404.67;;;6.62;13.57
80640;BME280;69992;60.170;24.692;2023-05-14T00:52:16;102403.87;;;4.58;13.57
80640;BME280;69992;60.170;24.692;2023-05-14T00:54:41;102405.95;;;5.50;13.58
80640;BME280;69992;60.170;24.692;2023-05-14T00:57:06;102406.80;;;6.42;13.58
80640;BME280;69992;60.170;24.692;2023-05-14T00:59:32;102405.09;;;4.40;13.58
80640;BME280;69992;60.170;24.692;2023-05-14T01:01:58;102406.51;;;6.26;13.58
80640;BME280;69992;60.170;24.692;2023-05-14T01:04:23;102406.19;;;5.14;13.59
80640;BME280;69992;60.170;24.692;2023-05-14T01:06:56;102402.01;;;5.97;13.62
80640;BME280;69992;60.170;24.692;2023-05-14T01:09:27;102399.96;;;4.93;13.63
80640;BME280;69992;60.170;24.692;2023-05-14T01:11:47;102399.61;;;4.85;13.64
80640;BME280;69992;60.170;24.692;2023-05-14T01:14:13;102400.22;;;4.74;13.59
80640;BME280;69992;60.170;24.692;2023-05-14T01:16:33;102402.53;;;5.57;13.59
80640;BME280;69992;60.170;24.692;2023-05-14T01:18:57;102401.79;;;4.44;13.61
80640;BME280;69992;60.170;24.692;2023-05-14T01:21:26;102400.03;;;5.34;13.65
80640;BME280;69992;60.170;24.692;2023-05-14T01:23:48;102397.70;;;5.26;13.67
80640;BME280;69992;60.170;24.692;2023-05-14T01:26:14;102399.17;;;4.18;13.65
80640;BME280;69992;60.170;24.692;2023-05-14T01:28:39;102398.98;;;5.11;13.66
80640;BME280;69992;60.170;24.692;2023-05-14T01:31:07;102398.32;;;5.10;13.66
80640;BME280;69992;60.170;24.692;2023-05-14T01:33:33;102395.48;;;5.10;13.63
80640;BME280;69992;60.170;24.692;2023-05-14T01:35:56;102395.91;;;5.08;13.63
80640;BME280;69992;60.170;24.692;2023-05-14T01:38:22;102394.11;;;5.09;13.61
80640;BME280;69992;60.170;24.692;2023-05-14T01:40:48;102394.13;;;5.08;13.60
80640;BME280;69992;60.170;24.692;2023-05-14T01:43:14;102395.43;;;6.03;13.60
80640;BME280;69992;60.170;24.692;2023-05-14T01:45:39;102398.27;;;4.06;13.59
80640;BME280;69992;60.170;24.692;2023-05-14T01:48:05;102399.04;;;4.99;13.60
80640;BME280;69992;60.170;24.692;2023-05-14T01:50:30;102401.81;;;4.96;13.60
80640;BME280;69992;60.170;24.692;2023-05-14T01:52:55;102402.71;;;4.92;13.60
80640;BME280;69992;60.170;24.692;2023-05-14T01:55:21;102404.95;;;4.90;13.60
80640;BME280;69992;60.170;24.692;2023-05-14T01:57:46;102404.45;;;4.81;13.63
80640;BME280;69992;60.170;24.692;2023-05-14T02:00:13;102402.34;;;4.79;13.61
80640;BME280;69992;60.170;24.692;2023-05-14T02:02:38;102403.07;;;4.75;13.61
80640;BME280;69992;60.170;24.692;2023-05-14T02:05:04;102408.48;;;5.74;13.59
80640;BME280;69992;60.170;24.692;2023-05-14T02:07:29;102411.07;;;4.73;13.60
80640;BME280;69992;60.170;24.692;2023-05-14T02:09:54;102417.49;;;4.73;13.62
80640;BME280;69992;60.170;24.692;2023-05-14T02:12:20;102420.17;;;4.70;13.61
80640;BME280;69992;60.170;24.692;2023-05-14T02:14:46;102420.84;;;4.60;13.63
80640;BME280;69992;60.170;24.692;2023-05-14T02:17:13;102419.56;;;4.54;13.66
80640;BME280;69992;60.170;24.692;2023-05-14T02:19:37;102420.01;;;4.49;13.66
80640;BME280;69992;60.170;24.692;2023-05-14T02:22:02;102422.40;;;4.50;13.66
80640;BME280;69992;60.170;24.692;2023-05-14T02:24:27;102422.21;;;4.45;13.64
80640;BME280;69992;60.170;24.692;2023-05-14T02:26:53;102423.58;;;4.43;13.63
80640;BME280;69992;60.170;24.692;2023-05-14T02:29:18;102425.47;;;5.37;13.64
80640;BME280;69992;60.170;24.692;2023-05-14T02:31:44;102426.60;;;4.30;13.65
80640;BME280;69992;60.170;24.692;2023-05-14T02:34:10;102426.46;;;6.26;13.65
80640;BME280;69992;60.170;24.692;2023-05-14T02:36:36;102424.96;;;4.29;13.64
80640;BME280;69992;60.170;24.692;2023-05-14T02:39:01;102424.26;;;4.29;13.66
80640;BME280;69992;60.170;24.692;2023-05-14T02:41:27;102425.79;;;4.30;13.67
80640;BME280;69992;60.170;24.692;2023-05-14T02:43:53;102426.01;;;5.29;13.66
80640;BME280;69992;60.170;24.692;2023-05-14T02:46:18;102427.66;;;5.27;13.66
80640;BME280;69992;60.170;24.692;2023-05-14T02:48:44;102426.35;;;4.30;13.66
80640;BME280;69992;60.170;24.692;2023-05-14T02:51:09;102424.99;;;5.26;13.67
80640;BME280;69992;60.170;24.692;2023-05-14T02:53:35;102427.41;;;5.22;13.65
80640;BME280;69992;60.170;24.692;2023-05-14T02:56:00;102428.19;;;5.19;13.69
80640;BME280;69992;60.170;24.692;2023-05-14T02:58:26;102427.81;;;5.19;13.69
80640;BME280;69992;60.170;24.692;2023-05-14T03:00:52;102428.39;;;4.20;13.68
80640;BME280;69992;60.170;24.692;2023-05-14T03:03:18;102430.47;;;4.19;13.69
80640;BME280;69992;60.170;24.692;2023-05-14T03:05:43;102433.10;;;5.19;13.69
80640;BME280;69992;60.170;24.692;2023-05-14T03:08:09;102436.33;;;5.20;13.68
80640;BME280;69992;60.170;24.692;2023-05-14T03:10:35;102439.01;;;4.27;13.71
80640;BME280;69992;60.170;24.692;2023-05-14T03:13:00;102444.36;;;5.25;13.70
80640;BME280;69992;60.170;24.692;2023-05-14T03:15:26;102446.53;;;3.38;13.70
80640;BME280;69992;60.170;24.692;2023-05-14T03:17:52;102447.85;;;4.46;13.70
80640;BME280;69992;60.170;24.692;2023-05-14T03:20:18;102444.81;;;4.54;13.70
80640;BME280;69992;60.170;24.692;2023-05-14T03:22:43;102443.97;;;4.66;13.68
80640;BME280;69992;60.170;24.692;2023-05-14T03:25:09;102443.27;;;4.75;13.67
80640;BME280;69992;60.170;24.692;2023-05-14T03:27:34;102442.94;;;4.82;13.66
80640;BME280;69992;60.170;24.692;2023-05-14T03:29:59;102440.16;;;4.84;13.66
80640;BME280;69992;60.170;24.692;2023-05-14T03:32:24;102438.00;;;4.91;13.66
80640;BME280;69992;60.170;24.692;2023-05-14T03:34:50;102436.52;;;4.99;13.67
80640;BME280;69992;60.170;24.692;2023-05-14T03:37:16;102439.63;;;5.17;13.68
80640;BME280;69992;60.170;24.692;2023-05-14T03:39:42;102440.70;;;5.42;13.68
80640;BME280;69992;60.170;24.692;2023-05-14T03:42:07;102442.19;;;4.68;13.68
80640;BME280;69992;60.170;24.692;2023-05-14T03:44:33;102443.05;;;5.81;13.66
80640;BME280;69992;60.170;24.692;2023-05-14T03:46:59;102436.66;;;5.06;13.65
80640;BME280;69992;60.170;24.692;2023-05-14T03:49:24;102441.28;;;5.31;13.66
80640;BME280;69992;60.170;24.692;2023-05-14T03:51:50;102440.94;;;6.44;13.70
80640;BME280;69992;60.170;24.692;2023-05-14T03:54:16;102439.08;;;5.59;13.66
80640;BME280;69992;60.170;24.692;2023-05-14T03:56:41;102439.26;;;6.78;13.66
80640;BME280;69992;60.170;24.692;2023-05-14T03:59:07;102439.09;;;5.98;13.68
80640;BME280;69992;60.170;24.692;2023-05-14T04:01:32;102440.23;;;5.23;13.66
80640;BME280;69992;60.170;24.692;2023-05-14T04:03:58;102441.48;;;6.52;13.65
80640;BME280;69992;60.170;24.692;2023-05-14T04:06:23;102442.26;;;5.69;13.63
80640;BME280;69992;60.170;24.692;2023-05-14T04:08:49;102441.14;;;5.85;13.61
80640;BME280;69992;60.170;24.692;2023-05-14T04:11:15;102442.92;;;6.06;13.61
80640;BME280;69992;60.170;24.692;2023-05-14T04:13:40;102444.50;;;7.11;13.66
80640;BME280;69992;60.170;24.692;2023-05-14T04:16:06;102447.14;;;6.16;13.75
80640;BME280;69992;60.170;24.692;2023-05-14T04:18:31;102449.58;;;6.32;13.73
80640;BME280;69992;60.170;24.692;2023-05-14T04:20:57;102448.41;;;5.42;13.82
80640;BME280;69992;60.170;24.692;2023-05-14T04:23:23;102446.53;;;6.59;13.73
80640;BME280;69992;60.170;24.692;2023-05-14T04:25:48;102444.59;;;5.79;13.71
80640;BME280;69992;60.170;24.692;2023-05-14T04:28:14;102447.06;;;6.05;13.68
80640;BME280;69992;60.170;24.692;2023-05-14T04:30:40;102445.03;;;7.25;13.66
80640;BME280;69992;60.170;24.692;2023-05-14T04:33:05;102443.86;;;6.49;13.65
80640;BME280;69992;60.170;24.692;2023-05-14T04:35:31;102446.39;;;7.67;13.62
80640;BME280;69992;60.170;24.692;2023-05-14T04:37:57;102450.35;;;6.85;13.63
80640;BME280;69992;60.170;24.692;2023-05-14T04:40:22;102452.45;;;7.04;13.63
80640;BME280;69992;60.170;24.692;2023-05-14T04:42:48;102446.68;;;7.32;13.62
80640;BME280;69992;60.170;24.692;2023-05-14T04:45:13;102446.21;;;7.52;13.60
80640;BME280;69992;60.170;24.692;2023-05-14T04:47:39;102445.62;;;7.59;13.65
80640;BME280;69992;60.170;24.692;2023-05-14T04:50:06;102444.91;;;6.80;13.71
80640;BME280;69992;60.170;24.692;2023-05-14T04:52:31;102447.87;;;7.02;13.64
80640;BME280;69992;60.170;24.692;2023-05-14T04:54:56;102450.39;;;7.14;13.77
80640;BME280;69992;60.170;24.692;2023-05-14T04:57:22;102450.09;;;7.32;13.71
80640;BME280;69992;60.170;24.692;2023-05-14T04:59:47;102448.83;;;7.52;13.70
80640;BME280;69992;60.170;24.692;2023-05-14T05:02:13;102449.49;;;7.74;13.74
80640;BME280;69992;60.170;24.692;2023-05-14T05:04:38;102443.82;;;5.95;13.76
80640;BME280;69992;60.170;24.692;2023-05-14T05:07:04;102442.95;;;7.99;13.79
80640;BME280;69992;60.170;24.692;2023-05-14T05:09:29;102441.39;;;7.20;13.87
80640;BME280;69992;60.170;24.692;2023-05-14T05:11:55;102441.79;;;7.49;13.74
80640;BME280;69992;60.170;24.692;2023-05-14T05:14:20;102442.74;;;8.60;13.81
80640;BME280;69992;60.170;24.692;2023-05-14T05:16:46;102445.32;;;8.79;13.78
80640;BME280;69992;60.170;24.692;2023-05-14T05:19:12;102444.81;;;7.10;13.74
80640;BME280;69992;60.170;24.692;2023-05-14T05:21:37;102445.26;;;7.32;13.76
80640;BME280;69992;60.170;24.692;2023-05-14T05:24:04;102443.80;;;9.54;13.75
80640;BME280;69992;60.170;24.692;2023-05-14T05:26:29;102440.05;;;7.76;13.83
80640;BME280;69992;60.170;24.692;2023-05-14T05:28:54;102439.63;;;8.87;13.81
80640;BME280;69992;60.170;24.692;2023-05-14T05:31:20;102437.07;;;8.10;13.75
80640;BME280;69992;60.170;24.692;2023-05-14T05:33:45;102434.32;;;8.32;13.79
80640;BME280;69992;60.170;24.692;2023-05-14T05:36:11;102429.33;;;8.53;13.81
80640;BME280;69992;60.170;24.692;2023-05-14T05:38:36;102429.59;;;8.75;13.79
80640;BME280;69992;60.170;24.692;2023-05-14T05:41:02;102429.78;;;9.00;13.80
80640;BME280;69992;60.170;24.692;2023-05-14T05:43:28;102429.45;;;9.36;13.75
80640;BME280;69992;60.170;24.692;2023-05-14T05:45:53;102429.81;;;9.59;13.92
80640;BME280;69992;60.170;24.692;2023-05-14T05:48:19;102429.45;;;9.77;14.32
80640;BME280;69992;60.170;24.692;2023-05-14T05:50:46;102429.43;;;9.07;14.01
80640;BME280;69992;60.170;24.692;2023-05-14T05:53:10;102433.69;;;9.44;13.89
80640;BME280;69992;60.170;24.692;2023-05-14T05:55:36;102438.17;;;8.76;13.84
80640;BME280;69992;60.170;24.692;2023-05-14T05:58:01;102438.85;;;9.04;13.92
80640;BME280;69992;60.170;24.692;2023-05-14T06:00:27;102437.17;;;10.23;14.07
80640;BME280;69992;60.170;24.692;2023-05-14T06:02:53;102438.86;;;9.50;13.92
80640;BME280;69992;60.170;24.692;2023-05-14T06:05:18;102435.51;;;9.82;13.82
80640;BME280;69992;60.170;24.692;2023-05-14T06:07:44;102434.37;;;10.14;13.78
80640;BME280;69992;60.170;24.692;2023-05-14T06:10:10;102430.54;;;9.56;13.72
80640;BME280;69992;60.170;24.692;2023-05-14T06:12:35;102427.54;;;9.90;13.70
80640;BME280;69992;60.170;24.692;2023-05-14T06:15:00;102430.69;;;11.14;13.81
80640;BME280;69992;60.170;24.692;2023-05-14T06:17:26;102431.56;;;9.43;13.75
80640;BME280;69992;60.170;24.692;2023-05-14T06:19:52;102432.20;;;10.65;13.73
80640;BME280;69992;60.170;24.692;2023-05-14T06:22:18;102429.61;;;10.84;13.82
80640;BME280;69992;60.170;24.692;2023-05-14T06:24:43;102429.91;;;11.09;13.94
80640;BME280;69992;60.170;24.692;2023-05-14T06:27:08;102431.41;;;10.26;13.89
80640;BME280;69992;60.170;24.692;2023-05-14T06:29:34;102427.98;;;10.52;13.95
80640;BME280;69992;60.170;24.692;2023-05-14T06:32:01;102426.24;;;10.82;13.78
80640;BME280;69992;60.170;24.692;2023-05-14T06:34:25;102431.28;;;11.17;13.76
80640;BME280;69992;60.170;24.692;2023-05-14T06:36:50;102427.80;;;11.43;13.72
80640;BME280;69992;60.170;24.692;2023-05-14T06:39:16;102427.21;;;10.77;13.68
80640;BME280;69992;60.170;24.692;2023-05-14T06:41:42;102424.18;;;12.11;13.66
80640;BME280;69992;60.170;24.692;2023-05-14T06:44:07;102427.25;;;11.49;13.64
80640;BME280;69992;60.170;24.692;2023-05-14T06:46:33;102425.43;;;10.89;13.59
80640;BME280;69992;60.170;24.692;2023-05-14T06:48:58;102426.21;;;13.18;13.56
80640;BME280;69992;60.170;24.692;2023-05-14T06:51:24;102428.54;;;11.56;13.56
80640;BME280;69992;60.170;24.692;2023-05-14T06:53:49;102428.04;;;11.93;13.53
80640;BME280;69992;60.170;24.692;2023-05-14T06:56:15;102424.86;;;12.13;13.60
80640;BME280;69992;60.170;24.692;2023-05-14T06:58:40;102425.48;;;12.40;13.59
80640;BME280;69992;60.170;24.692;2023-05-14T07:01:06;102424.29;;;12.75;13.54
80640;BME280;69992;60.170;24.692;2023-05-14T07:03:31;102423.95;;;13.00;13.53
80640;BME280;69992;60.170;24.692;2023-05-14T07:05:57;102426.46;;;13.21;13.61
80640;BME280;69992;60.170;24.692;2023-05-14T07:08:22;102424.43;;;13.42;13.59
80640;BME280;69992;60.170;24.692;2023-05-14T07:10:48;102426.90;;;12.67;13.70
80640;BME280;69992;60.170;24.692;2023-05-14T07:13:13;102424.41;;;11.93;13.65
80640;BME280;69992;60.170;24.692;2023-05-14T07:15:38;102421.51;;;12.14;13.85
80640;BME280;69992;60.170;24.692;2023-05-14T07:18:04;102420.11;;;12.32;13.70
80640;BME280;69992;60.170;24.692;2023-05-14T07:20:30;102421.00;;;12.63;13.67
80640;BME280;69992;60.170;24.692;2023-05-14T07:22:55;102418.59;;;12.80;13.74
80640;BME280;69992;60.170;24.692;2023-05-14T07:25:21;102417.46;;;13.99;13.73
80640;BME280;69992;60.170;24.692;2023-05-14T07:27:46;102421.47;;;15.13;13.77
80640;BME280;69992;60.170;24.692;2023-05-14T07:30:12;102420.05;;;13.54;13.69
80640;BME280;69992;60.170;24.692;2023-05-14T07:32:37;102417.54;;;13.87;13.69
80640;BME280;69992;60.170;24.692;2023-05-14T07:35:03;102414.83;;;14.32;13.64
80640;BME280;69992;60.170;24.692;2023-05-14T07:37:28;102413.86;;;13.84;13.59
80640;BME280;69992;60.170;24.692;2023-05-14T07:39:54;102409.19;;;14.11;13.60
80640;BME280;69992;60.170;24.692;2023-05-14T07:42:19;102408.97;;;15.41;13.57
80640;BME280;69992;60.170;24.692;2023-05-14T07:44:45;102413.24;;;13.85;13.63
80640;BME280;69992;60.170;24.692;2023-05-14T07:47:10;102406.04;;;15.08;13.57
80640;BME280;69992;60.170;24.692;2023-05-14T07:49:36;102406.06;;;14.45;13.56
80640;BME280;69992;60.170;24.692;2023-05-14T07:52:01;102403.50;;;14.70;13.60
80640;BME280;69992;60.170;24.692;2023-05-14T07:54:26;102404.77;;;14.80;13.63
80640;BME280;69992;60.170;24.692;2023-05-14T07:56:51;102399.91;;;15.11;13.60
80640;BME280;69992;60.170;24.692;2023-05-14T07:59:17;102396.17;;;15.27;13.63
80640;BME280;69992;60.170;24.692;2023-05-14T08:01:42;102394.61;;;15.63;13.60
80640;BME280;69992;60.170;24.692;2023-05-14T08:04:08;102394.93;;;15.74;13.69
80640;BME280;69992;60.170;24.692;2023-05-14T08:06:34;102390.65;;;16.06;13.64
80640;BME280;69992;60.170;24.692;2023-05-14T08:08:59;102390.50;;;15.32;13.65
80640;BME280;69992;60.170;24.692;2023-05-14T08:11:24;102383.44;;;14.71;13.62
80640;BME280;69992;60.170;24.692;2023-05-14T08:13:50;102387.82;;;15.09;13.60
80640;BME280;69992;60.170;24.692;2023-05-14T08:16:16;102388.50;;;16.46;13.59
80640;BME280;69992;60.170;24.692;2023-05-14T08:18:41;102388.57;;;15.79;13.58
80640;BME280;69992;60.170;24.692;2023-05-14T08:21:07;102390.28;;;16.14;13.56
80640;BME280;69992;60.170;24.692;2023-05-14T08:23:33;102388.46;;;15.35;13.56
80640;BME280;69992;60.170;24.692;2023-05-14T08:25:58;102385.36;;;16.45;13.63
80640;BME280;69992;60.170;24.692;2023-05-14T08:28:23;102384.60;;;16.58;13.63
80640;BME280;69992;60.170;24.692;2023-05-14T08:30:49;102383.95;;;16.93;13.62
80640;BME280;69992;60.170;24.692;2023-05-14T08:33:14;102384.92;;;17.35;13.61
80640;BME280;69992;60.170;24.692;2023-05-14T08:35:40;102384.01;;;15.83;13.58
80640;BME280;69992;60.170;24.692;2023-05-14T08:38:05;102384.48;;;16.11;13.61
80640;BME280;69992;60.170;24.692;2023-05-14T08:40:31;102386.37;;;17.24;13.60
80640;BME280;69992;60.170;24.692;2023-05-14T08:42:56;102381.72;;;17.38;13.61
80640;BME280;69992;60.170;24.692;2023-05-14T08:45:27;102381.32;;;16.76;13.58
80640;BME280;69992;60.170;24.692;2023-05-14T08:47:48;102388.00;;;17.02;13.58
80640;BME280;69992;60.170;24.692;2023-05-14T08:50:12;102384.23;;;17.35;13.57
80640;BME280;69992;60.170;24.692;2023-05-14T08:52:38;102385.73;;;17.83;13.56
80640;BME280;69992;60.170;24.692;2023-05-14T08:55:04;102381.62;;;18.07;13.55
80640;BME280;69992;60.170;24.692;2023-05-14T08:57:29;102379.09;;;17.36;13.52
80640;BME280;69992;60.170;24.692;2023-05-14T08:59:54;102376.31;;;18.67;13.54
80640;BME280;69992;60.170;24.692;2023-05-14T09:02:22;102381.55;;;18.01;13.53
80640;BME280;69992;60.170;24.692;2023-05-14T09:04:46;102377.57;;;17.42;13.52
80640;BME280;69992;60.170;24.692;2023-05-14T09:07:10;102375.75;;;17.91;13.52
80640;BME280;69992;60.170;24.692;2023-05-14T09:09:36;102378.59;;;18.58;13.50
80640;BME280;69992;60.170;24.692;2023-05-14T09:12:01;102376.06;;;19.06;13.45
80640;BME280;69992;60.170;24.692;2023-05-14T09:14:26;102377.41;;;19.57;13.46
80640;BME280;69992;60.170;24.692;2023-05-14T09:16:52;102378.54;;;19.01;13.44
80640;BME280;69992;60.170;24.692;2023-05-14T09:19:18;102374.69;;;19.46;13.41
80640;BME280;69992;60.170;24.692;2023-05-14T09:21:44;102371.39;;;19.91;13.40
80640;BME280;69992;60.170;24.692;2023-05-14T09:24:08;102374.89;;;19.39;13.39
80640;BME280;69992;60.170;24.692;2023-05-14T09:26:34;102372.90;;;19.95;13.35
80640;BME280;69992;60.170;24.692;2023-05-14T09:29:00;102370.78;;;20.71;13.27
80640;BME280;69992;60.170;24.692;2023-05-14T09:31:24;102370.44;;;21.65;13.03
80640;BME280;69992;60.170;24.692;2023-05-14T09:33:50;102375.54;;;22.93;12.80
80640;BME280;69992;60.170;24.692;2023-05-14T09:36:16;102369.07;;;23.04;12.62
80640;BME280;69992;60.170;24.692;2023-05-14T09:38:40;102368.74;;;25.08;12.43
80640;BME280;69992;60.170;24.692;2023-05-14T09:41:06;102371.19;;;24.83;12.28
80640;BME280;69992;60.170;24.692;2023-05-14T09:43:31;102374.00;;;26.43;12.14
80640;BME280;69992;60.170;24.692;2023-05-14T09:45:57;102367.57;;;26.00;12.03
80640;BME280;69992;60.170;24.692;2023-05-14T09:48:23;102366.56;;;27.42;11.94
80640;BME280;69992;60.170;24.692;2023-05-14T09:50:47;102363.63;;;28.46;11.91
80640;BME280;69992;60.170;24.692;2023-05-14T09:53:13;102363.54;;;27.38;11.92
80640;BME280;69992;60.170;24.692;2023-05-14T09:55:38;102360.69;;;28.38;11.86
80640;BME280;69992;60.170;24.692;2023-05-14T09:58:04;102355.47;;;29.25;11.89
80640;BME280;69992;60.170;24.692;2023-05-14T10:00:30;102358.50;;;28.08;11.86
80640;BME280;69992;60.170;24.692;2023-05-14T10:02:55;102363.54;;;29.05;11.85
80640;BME280;69992;60.170;24.692;2023-05-14T10:05:22;102362.24;;;28.73;11.81
80640;BME280;69992;60.170;24.692;2023-05-14T10:07:47;102358.24;;;28.68;11.78
80640;BME280;69992;60.170;24.692;2023-05-14T10:10:14;102358.11;;;29.96;11.69
80640;BME280;69992;60.170;24.692;2023-05-14T10:12:38;102360.72;;;30.83;11.65
80640;BME280;69992;60.170;24.692;2023-05-14T10:15:05;102354.59;;;31.37;11.72
80640;BME280;69992;60.170;24.692;2023-05-14T10:17:30;102359.30;;;31.85;11.69
80640;BME280;69992;60.170;24.692;2023-05-14T10:19:53;102355.95;;;30.26;11.73
80640;BME280;69992;60.170;24.692;2023-05-14T10:22:19;102354.91;;;30.80;11.65
80640;BME280;69992;60.170;24.692;2023-05-14T10:24:42;102348.57;;;31.04;11.66
80640;BME280;69992;60.170;24.692;2023-05-14T10:27:07;102344.23;;;31.52;11.71
80640;BME280;69992;60.170;24.692;2023-05-14T10:29:33;102342.57;;;32.16;11.63
80640;BME280;69992;60.170;24.692;2023-05-14T10:31:58;102343.80;;;32.62;11.59
80640;BME280;69992;60.170;24.692;2023-05-14T10:34:34;102339.77;;;32.90;11.64
80640;BME280;69992;60.170;24.692;2023-05-14T10:36:48;102338.81;;;31.71;11.59
80640;BME280;69992;60.170;24.692;2023-05-14T10:39:14;102336.17;;;32.20;11.57
80640;BME280;69992;60.170;24.692;2023-05-14T10:41:39;102338.83;;;32.67;11.60
80640;BME280;69992;60.170;24.692;2023-05-14T10:44:07;102339.62;;;32.69;11.63
80640;BME280;69992;60.170;24.692;2023-05-14T10:46:30;102324.47;;;31.38;11.77
80640;BME280;69992;60.170;24.692;2023-05-14T10:48:55;102320.21;;;31.52;12.02
80640;BME280;69992;60.170;24.692;2023-05-14T10:51:20;102319.70;;;30.11;12.31
80640;BME280;69992;60.170;24.692;2023-05-14T10:53:47;102316.31;;;27.51;12.60
80640;BME280;69992;60.170;24.692;2023-05-14T10:56:12;102309.20;;;26.99;12.88
80640;BME280;69992;60.170;24.692;2023-05-14T10:58:36;102309.16;;;26.01;13.13
80640;BME280;69992;60.170;24.692;2023-05-14T11:01:02;102301.27;;;26.06;13.24
80640;BME280;69992;60.170;24.692;2023-05-14T11:03:28;102296.68;;;24.66;13.43
80640;BME280;69992;60.170;24.692;2023-05-14T11:05:53;102296.26;;;24.41;13.54
80640;BME280;69992;60.170;24.692;2023-05-14T11:08:18;102293.75;;;24.36;13.64
80640;BME280;69992;60.170;24.692;2023-05-14T11:10:43;102290.55;;;23.44;13.70
80640;BME280;69992;60.170;24.692;2023-05-14T11:13:09;102295.64;;;23.71;13.74
80640;BME280;69992;60.170;24.692;2023-05-14T11:15:33;102289.37;;;23.78;13.78
80640;BME280;69992;60.170;24.692;2023-05-14T11:17:59;102282.64;;;21.96;13.81
80640;BME280;69992;60.170;24.692;2023-05-14T11:20:24;102288.17;;;22.37;13.84
80640;BME280;69992;60.170;24.692;2023-05-14T11:22:49;102284.39;;;21.93;13.90
80640;BME280;69992;60.170;24.692;2023-05-14T11:25:15;102281.64;;;21.64;13.92
80640;BME280;69992;60.170;24.692;2023-05-14T11:27:42;102282.72;;;21.32;13.92
80640;BME280;69992;60.170;24.692;2023-05-14T11:30:12;102282.61;;;23.06;13.91
80640;BME280;69992;60.170;24.692;2023-05-14T11:32:32;102275.72;;;21.81;13.88
80640;BME280;69992;60.170;24.692;2023-05-14T11:34:56;102277.11;;;21.54;13.91
80640;BME280;69992;60.170;24.692;2023-05-14T11:37:22;102274.34;;;22.64;13.92
80640;BME280;69992;60.170;24.692;2023-05-14T11:39:48;102277.45;;;21.96;13.89
80640;BME280;69992;60.170;24.692;2023-05-14T11:42:13;102277.22;;;22.36;13.84
80640;BME280;69992;60.170;24.692;2023-05-14T11:44:38;102275.36;;;22.66;13.79
80640;BME280;69992;60.170;24.692;2023-05-14T11:47:04;102274.61;;;22.76;13.76
80640;BME280;69992;60.170;24.692;2023-05-14T11:49:29;102277.52;;;21.84;13.75
80640;BME280;69992;60.170;24.692;2023-05-14T11:51:57;102277.98;;;22.77;13.71
80640;BME280;69992;60.170;24.692;2023-05-14T11:54:19;102273.36;;;22.11;13.69
80640;BME280;69992;60.170;24.692;2023-05-14T11:56:49;102275.07;;;22.90;13.65
80640;BME280;69992;60.170;24.692;2023-05-14T11:59:10;102274.32;;;24.05;13.52
80640;BME280;69992;60.170;24.692;2023-05-14T12:01:36;102264.87;;;24.45;13.32
80640;BME280;69992;60.170;24.692;2023-05-14T12:04:01;102268.09;;;24.45;13.22
80640;BME280;69992;60.170;24.692;2023-05-14T12:06:29;102267.22;;;25.28;13.12
80640;BME280;69992;60.170;24.692;2023-05-14T12:08:54;102271.85;;;26.33;13.01
80640;BME280;69992;60.170;24.692;2023-05-14T12:11:20;102267.54;;;25.94;12.92
80640;BME280;69992;60.170;24.692;2023-05-14T12:13:42;102263.09;;;27.46;12.94
80640;BME280;69992;60.170;24.692;2023-05-14T12:16:08;102266.33;;;26.19;12.87
80640;BME280;69992;60.170;24.692;2023-05-14T12:18:34;102268.61;;;25.92;12.81
80640;BME280;69992;60.170;24.692;2023-05-14T12:21:01;102265.45;;;27.53;12.77
80640;BME280;69992;60.170;24.692;2023-05-14T12:23:24;102264.83;;;27.07;12.73
80640;BME280;69992;60.170;24.692;2023-05-14T12:25:49;102260.70;;;27.49;12.69
80640;BME280;69992;60.170;24.692;2023-05-14T12:28:15;102257.94;;;28.11;12.63
80640;BME280;69992;60.170;24.692;2023-05-14T12:30:40;102262.29;;;27.96;12.50
80640;BME280;69992;60.170;24.692;2023-05-14T12:33:05;102262.50;;;30.30;12.28
80640;BME280;69992;60.170;24.692;2023-05-14T12:35:31;102259.80;;;31.71;12.01